Terminal Aerodrome Forecast
Issued by NWS

Home | Current Version | Previous Version | Text Only | Print | Product List | Glossary On
Versions: 1 2 3 4 5 6 7 8 9 10 11 12 13 14 15 16 17 18 19 20 21 22 23 24 25 26 27 28 29 30 31 32 33 34 35 36 37 38
289
FTUS41 KRNK 061729
TAFBCB
TAF
KBCB 061729Z 0618/0718 32011G18KT P6SM VCSH BKN035 OVC050
      TEMPO 0618/0621 P6SM BKN025 OVC035
     FM062100 32013G24KT P6SM BKN060
     FM070000 30006KT P6SM BKN060
     FM071400 29012G20KT P6SM SCT100=

USA.gov is the U.S. government's official web portal to all federal, state and local government web resources and services.